createdAt,value
2022-11-29T00:00:22.156Z,20.69
2022-11-29T00:02:58.984Z,19.44
2022-11-29T00:05:40.494Z,21.76
2022-11-29T00:08:20.861Z,22.06
2022-11-29T00:21:32.852Z,23.05
2022-11-29T00:24:07.172Z,23.06
2022-11-29T00:26:40.848Z,23.31
2022-11-29T00:29:14.723Z,22.83
2022-11-29T00:31:48.877Z,21.98
2022-11-29T00:48:25.844Z,24.89
2022-11-29T00:51:05.852Z,24.03
2022-11-29T00:53:39.220Z,24.33
2022-11-29T00:56:13.857Z,24.25
2022-11-29T00:58:53.926Z,24.04
2022-11-29T01:01:33.893Z,25.63
2022-11-29T01:04:09.048Z,25.98
2022-11-29T01:13:44.859Z,26.43
2022-11-29T01:16:18.252Z,25.87
2022-11-29T01:18:51.858Z,26.19
2022-11-29T01:21:27.125Z,25.67
2022-11-29T01:24:00.843Z,25.96
2022-11-29T01:26:34.160Z,26.87
2022-11-29T01:29:07.845Z,26.74
2022-11-29T01:42:20.865Z,27.70
2022-11-29T01:45:15.056Z,25.73
2022-11-29T01:47:59.453Z,27.10
2022-11-29T01:50:33.067Z,25.77
2022-11-29T01:53:06.829Z,25.97
2022-11-29T02:07:07.902Z,26.63
2022-11-29T02:09:43.116Z,26.77
2022-11-29T02:12:32.848Z,26.28
2022-11-29T02:15:33.091Z,25.06
2022-11-29T02:18:17.879Z,25.66
2022-11-29T02:21:30.420Z,25.39
2022-11-29T02:35:02.805Z,24.17
2022-11-29T02:38:27.829Z,24.94
2022-11-29T02:41:36.529Z,24.95
2022-11-29T02:44:54.834Z,25.16
2022-11-29T02:47:47.328Z,25.69
2022-11-29T03:01:02.942Z,24.44
2022-11-29T03:03:52.818Z,24.66
2022-11-29T03:06:40.450Z,24.37
2022-11-29T03:09:34.834Z,23.21
2022-11-29T03:12:25.388Z,23.89
2022-11-29T03:28:56.827Z,23.90
2022-11-29T03:31:36.716Z,23.48
2022-11-29T03:34:33.808Z,24.47
2022-11-29T03:37:17.117Z,24.36
2022-11-29T03:40:02.821Z,24.49
2022-11-29T03:42:47.196Z,24.38
2022-11-29T03:55:59.775Z,25.80
2022-11-29T03:59:00.828Z,24.74
2022-11-29T04:02:07.865Z,24.22
2022-11-29T04:05:36.816Z,24.23
2022-11-29T04:08:47.712Z,25.05
2022-11-29T04:22:33.776Z,24.89
2022-11-29T04:25:57.830Z,24.65
2022-11-29T04:29:07.717Z,23.39
2022-11-29T04:32:19.805Z,24.15
2022-11-29T04:49:30.787Z,22.75
2022-11-29T04:52:53.823Z,21.24
2022-11-29T04:55:43.840Z,22.01
2022-11-29T04:58:35.483Z,22.12
2022-11-29T05:01:25.311Z,22.14
2022-11-29T05:04:22.796Z,22.68
2022-11-29T05:14:36.759Z,21.90
2022-11-29T05:17:37.810Z,21.80
2022-11-29T05:20:35.693Z,22.69
2022-11-29T05:23:35.872Z,22.84
2022-11-29T05:26:19.887Z,23.44
2022-11-29T05:29:09.829Z,23.09
2022-11-29T05:42:45.860Z,22.88
2022-11-29T05:45:30.653Z,24.76
2022-11-29T05:48:21.812Z,23.16
2022-11-29T05:51:11.061Z,23.74
2022-11-29T05:54:06.791Z,23.88
2022-11-29T06:08:04.833Z,24.15
2022-11-29T06:10:51.461Z,24.12
2022-11-29T06:13:58.803Z,24.56
2022-11-29T06:16:57.995Z,23.46
2022-11-29T06:20:18.797Z,22.79
2022-11-29T06:23:20.972Z,23.48
2022-11-29T06:36:25.753Z,25.03
2022-11-29T06:39:08.776Z,23.97
2022-11-29T06:41:42.144Z,24.80
2022-11-29T06:44:16.776Z,23.95
2022-11-29T06:47:05.045Z,23.89
2022-11-29T07:03:51.824Z,24.57
2022-11-29T07:06:28.022Z,24.02
2022-11-29T07:09:06.772Z,24.98
2022-11-29T07:11:42.328Z,24.13
2022-11-29T07:14:16.791Z,24.59
2022-11-29T07:17:05.981Z,25.35
2022-11-29T07:30:16.740Z,23.56
2022-11-29T07:33:11.818Z,23.39
2022-11-29T07:35:59.397Z,22.23
2022-11-29T07:38:56.782Z,22.27
2022-11-29T07:41:43.824Z,23.73
2022-11-29T07:55:00.738Z,22.49
2022-11-29T07:57:40.823Z,22.17
2022-11-29T08:00:15.597Z,23.49
2022-11-29T08:02:49.834Z,22.59
2022-11-29T08:05:23.171Z,22.27
2022-11-29T08:07:57.343Z,22.88
2022-11-29T08:24:34.740Z,23.66
2022-11-29T08:27:14.783Z,23.20
2022-11-29T08:29:47.963Z,23.84
2022-11-29T08:32:14.677Z,23.92
2022-11-29T08:34:54.853Z,23.50
2022-11-29T08:37:28.082Z,22.39
2022-11-29T08:50:23.753Z,22.89
2022-11-29T08:53:04.744Z,22.92
2022-11-29T08:55:40.665Z,23.12
2022-11-29T08:58:16.826Z,22.04
2022-11-29T09:00:50.067Z,23.31
2022-11-29T09:03:23.758Z,23.48
2022-11-29T09:16:39.851Z,23.44
2022-11-29T09:19:14.080Z,23.09
2022-11-29T09:21:53.776Z,24.09
2022-11-29T09:24:26.940Z,23.84
2022-11-29T09:27:06.755Z,23.68
2022-11-29T09:43:56.722Z,23.41
2022-11-29T09:46:57.228Z,23.04
2022-11-29T09:50:03.292Z,22.55
2022-11-29T09:52:58.731Z,23.39
2022-11-29T09:55:49.255Z,23.29
2022-11-29T09:58:35.737Z,21.49
2022-11-29T10:08:55.720Z,22.86
2022-11-29T10:11:45.901Z,21.83
2022-11-29T10:14:26.646Z,22.12
2022-11-29T10:17:21.757Z,22.05
2022-11-29T10:20:04.594Z,20.85
2022-11-29T10:22:51.758Z,21.19
2022-11-29T10:36:08.757Z,19.59
2022-11-29T10:38:44.404Z,18.93
2022-11-29T10:41:25.764Z,19.51
2022-11-29T10:44:00.054Z,19.31
2022-11-29T10:46:39.737Z,19.24
2022-11-29T10:49:18.228Z,18.97
2022-11-29T11:02:26.701Z,18.20
2022-11-29T11:05:07.803Z,18.50
2022-11-29T11:07:41.077Z,18.20
2022-11-29T11:10:31.722Z,18.43
2022-11-29T11:13:20.071Z,18.89
2022-11-29T11:16:05.428Z,18.81
2022-11-29T11:18:40.944Z,19.78
2022-11-29T11:31:30.507Z,19.97
2022-11-29T11:34:35.736Z,20.59
2022-11-29T11:37:21.817Z,20.82
2022-11-29T11:40:31.827Z,20.60
2022-11-29T11:43:04.984Z,21.35
2022-11-29T11:56:06.685Z,21.57
2022-11-29T11:58:56.727Z,20.97
2022-11-29T12:01:37.154Z,20.98
2022-11-29T12:04:23.725Z,21.08
2022-11-29T12:07:02.386Z,20.33
2022-11-29T12:23:41.717Z,20.67
2022-11-29T12:26:49.031Z,20.74
2022-11-29T12:29:26.712Z,19.61
2022-11-29T12:32:22.453Z,19.58
2022-11-29T12:35:37.705Z,20.58
2022-11-29T12:38:43.459Z,20.32
2022-11-29T12:51:50.683Z,21.42
2022-11-29T12:54:58.716Z,21.19
2022-11-29T12:57:44.327Z,21.02
2022-11-29T13:00:27.696Z,21.59
2022-11-29T13:03:19.456Z,21.12
2022-11-29T13:16:40.693Z,23.36
2022-11-29T13:19:31.779Z,23.30
2022-11-29T13:22:19.868Z,23.42
2022-11-29T13:25:06.781Z,23.26
2022-11-29T13:27:55.267Z,23.81
2022-11-29T13:44:36.741Z,23.61
2022-11-29T13:47:13.839Z,23.28
2022-11-29T13:50:01.718Z,23.95
2022-11-29T13:52:40.509Z,22.50
2022-11-29T13:55:27.722Z,24.34
2022-11-29T13:58:17.370Z,23.35
2022-11-29T14:11:27.666Z,24.10
2022-11-29T14:14:13.677Z,25.22
2022-11-29T14:16:53.153Z,23.96
2022-11-29T14:19:36.808Z,25.24
2022-11-29T14:22:27.447Z,24.47
2022-11-29T14:36:08.664Z,23.91
2022-11-29T14:39:02.719Z,24.89
2022-11-29T14:41:55.288Z,25.25
2022-11-29T14:44:41.093Z,24.59
2022-11-29T14:47:26.870Z,25.05
2022-11-29T15:03:54.738Z,26.76
2022-11-29T15:06:30.722Z,27.47
2022-11-29T15:09:18.678Z,26.06
2022-11-29T15:12:00.096Z,27.41
2022-11-29T15:14:56.681Z,28.44
2022-11-29T15:17:41.507Z,29.21
2022-11-29T15:30:42.694Z,31.06
2022-11-29T15:33:29.664Z,30.20
2022-11-29T15:36:08.009Z,29.74
2022-11-29T15:38:50.715Z,30.36
2022-11-29T15:41:29.227Z,28.83
2022-11-29T15:44:12.677Z,29.90
2022-11-29T15:57:32.680Z,30.61
2022-11-29T16:00:11.753Z,31.44
2022-11-29T16:02:57.663Z,30.63
2022-11-29T16:05:35.121Z,30.19
2022-11-29T16:08:23.679Z,30.98
2022-11-29T16:25:17.616Z,30.32
2022-11-29T16:28:00.680Z,29.95
2022-11-29T16:30:40.352Z,30.24
2022-11-29T16:33:28.736Z,30.77
2022-11-29T16:36:13.320Z,31.05
2022-11-29T16:38:59.675Z,30.52
2022-11-29T16:52:31.677Z,32.38
2022-11-29T16:55:05.558Z,33.06
2022-11-29T16:57:39.659Z,31.71
2022-11-29T17:00:24.539Z,31.25
2022-11-29T17:03:04.640Z,34.96
2022-11-29T17:16:50.690Z,32.28
2022-11-29T17:19:24.643Z,34.91
2022-11-29T17:21:58.658Z,34.67
2022-11-29T17:24:32.014Z,35.25
2022-11-29T17:27:06.190Z,31.99
2022-11-29T17:29:39.835Z,33.07
2022-11-29T17:32:14.667Z,32.17
2022-11-29T17:45:24.660Z,35.45
2022-11-29T17:48:00.637Z,35.38
2022-11-29T17:50:34.640Z,34.75
2022-11-29T17:53:07.862Z,34.77
2022-11-29T17:55:42.637Z,34.52
2022-11-29T17:58:15.932Z,35.34
2022-11-29T18:11:13.616Z,35.95
2022-11-29T18:13:53.632Z,35.34
2022-11-29T18:16:30.380Z,36.07
2022-11-29T18:19:12.657Z,36.32
2022-11-29T18:21:46.444Z,36.46
2022-11-29T18:24:20.657Z,36.77
2022-11-29T18:38:06.420Z,37.48
2022-11-29T18:40:25.802Z,36.96
2022-11-29T18:42:58.641Z,37.09
2022-11-29T18:45:35.327Z,36.07
2022-11-29T18:48:15.688Z,35.74
2022-11-29T18:50:48.839Z,36.65
2022-11-29T18:53:23.672Z,37.58
2022-11-29T19:03:51.608Z,36.40
2022-11-29T19:06:39.260Z,33.76
2022-11-29T19:09:17.496Z,35.73
2022-11-29T19:11:57.643Z,36.09
2022-11-29T19:14:30.790Z,35.19
2022-11-29T19:17:04.692Z,34.71
2022-11-29T19:19:37.913Z,35.09
2022-11-29T19:32:27.589Z,33.67
2022-11-29T19:35:08.730Z,32.72
2022-11-29T19:37:41.825Z,31.69
2022-11-29T19:40:15.619Z,31.88
2022-11-29T19:42:49.584Z,30.11
2022-11-29T19:59:12.676Z,31.28
2022-11-29T20:01:45.865Z,30.82
2022-11-29T20:04:19.629Z,29.18
2022-11-29T20:06:52.777Z,29.34
2022-11-29T20:09:26.627Z,29.55
2022-11-29T20:11:59.934Z,29.49
2022-11-29T20:14:35.619Z,29.24
2022-11-29T20:24:22.585Z,28.43
2022-11-29T20:27:02.641Z,27.56
2022-11-29T20:29:37.893Z,28.85
2022-11-29T20:32:11.592Z,27.98
2022-11-29T20:34:46.036Z,28.60
2022-11-29T20:37:44.308Z,28.47
2022-11-29T20:51:39.607Z,28.04
2022-11-29T20:55:16.253Z,28.25
2022-11-29T20:59:01.660Z,26.80
2022-11-29T21:02:38.085Z,27.40
2022-11-29T21:20:01.595Z,23.12
2022-11-29T21:23:41.117Z,23.85
2022-11-29T21:27:24.598Z,22.79
2022-11-29T21:31:03.998Z,22.04
2022-11-29T21:34:47.866Z,21.86
2022-11-29T21:45:24.585Z,22.03
2022-11-29T21:49:07.605Z,22.18
2022-11-29T21:52:28.059Z,22.26
2022-11-29T21:56:11.585Z,21.67
2022-11-29T21:59:48.235Z,23.49
2022-11-29T22:13:35.559Z,22.33
2022-11-29T22:17:18.665Z,22.41
2022-11-29T22:20:26.572Z,21.47
2022-11-29T22:23:40.571Z,22.63
2022-11-29T22:39:00.556Z,23.21
2022-11-29T22:41:54.917Z,23.09
2022-11-29T22:44:37.848Z,22.44
2022-11-29T22:47:35.881Z,23.56
2022-11-29T22:50:10.809Z,23.04
2022-11-29T22:52:43.799Z,23.47
2022-11-29T23:05:55.820Z,22.43
2022-11-29T23:08:28.992Z,23.34
2022-11-29T23:11:02.815Z,22.53
2022-11-29T23:13:38.727Z,23.11
2022-11-29T23:16:15.855Z,22.72
2022-11-29T23:18:49.358Z,22.06
2022-11-29T23:31:39.880Z,22.68
2022-11-29T23:34:19.835Z,22.52
2022-11-29T23:36:53.478Z,22.85
2022-11-29T23:39:26.833Z,24.05
2022-11-29T23:42:00.024Z,23.05
2022-11-29T23:44:26.688Z,22.92
